Cone, Texas
Current Conditions -  °F | °C
As of 10:53 PM on Friday 24 Oct 2014 (Local Time) from KLBB Reporting Station
Clear Clear  
Wind Chill: 65°   Ceiling: Unl
Heat Index: 65°   Visibility: 10mi
Dew Point: 51°   Wind: 6mph
Humidity: 61%   Direction: 200°SSW
Pressure: 30.16"   Gusts: NA
Location:  33.5997°N, 101.355°W
Report Text: KLBB 250353Z 20005KT 10SM CLR 18/11 A3016 RMK AO2 SLP172 T01830106
Loading
Personal Weather Stations






























Interactive Weather Map
Tropical Storm Tracking
New forecast layout! Learn more

10-Day Weather Forecast

Advertisements
Track Severe Weather on mobile